sensor_id;sensor_type;location;lat;lon;timestamp;P1;durP1;ratioP1;P2;durP2;ratioP2
4533;SDS011;2279;51.448;7.306;2022-07-10T00:02:16;2.13;;;1.83;;
4533;SDS011;2279;51.448;7.306;2022-07-10T00:04:42;3.10;;;1.70;;
4533;SDS011;2279;51.448;7.306;2022-07-10T00:07:08;2.00;;;1.70;;
4533;SDS011;2279;51.448;7.306;2022-07-10T00:09:34;1.70;;;1.60;;
4533;SDS011;2279;51.448;7.306;2022-07-10T00:12:00;3.50;;;1.57;;
4533;SDS011;2279;51.448;7.306;2022-07-10T00:14:26;4.03;;;1.97;;
4533;SDS011;2279;51.448;7.306;2022-07-10T00:16:53;2.63;;;2.17;;
4533;SDS011;2279;51.448;7.306;2022-07-10T00:19:19;3.00;;;1.70;;
4533;SDS011;2279;51.448;7.306;2022-07-10T00:21:45;1.80;;;1.30;;
4533;SDS011;2279;51.448;7.306;2022-07-10T00:24:11;2.30;;;1.77;;
4533;SDS011;2279;51.448;7.306;2022-07-10T00:26:37;3.03;;;1.53;;
4533;SDS011;2279;51.448;7.306;2022-07-10T00:29:03;7.43;;;1.50;;
4533;SDS011;2279;51.448;7.306;2022-07-10T00:31:29;3.00;;;1.90;;
4533;SDS011;2279;51.448;7.306;2022-07-10T00:33:55;3.90;;;1.57;;
4533;SDS011;2279;51.448;7.306;2022-07-10T00:36:21;3.10;;;1.80;;
4533;SDS011;2279;51.448;7.306;2022-07-10T00:38:47;2.90;;;1.50;;
4533;SDS011;2279;51.448;7.306;2022-07-10T00:41:13;2.40;;;1.47;;
4533;SDS011;2279;51.448;7.306;2022-07-10T00:46:18;2.77;;;1.60;;
4533;SDS011;2279;51.448;7.306;2022-07-10T00:48:48;1.67;;;1.57;;
4533;SDS011;2279;51.448;7.306;2022-07-10T00:51:14;5.43;;;1.70;;
4533;SDS011;2279;51.448;7.306;2022-07-10T00:53:42;3.00;;;2.00;;
4533;SDS011;2279;51.448;7.306;2022-07-10T00:56:10;4.83;;;1.47;;
4533;SDS011;2279;51.448;7.306;2022-07-10T00:58:37;1.70;;;1.40;;
4533;SDS011;2279;51.448;7.306;2022-07-10T01:01:04;4.30;;;1.50;;
4533;SDS011;2279;51.448;7.306;2022-07-10T01:03:30;7.87;;;1.33;;
4533;SDS011;2279;51.448;7.306;2022-07-10T01:05:57;1.60;;;1.50;;
4533;SDS011;2279;51.448;7.306;2022-07-10T01:08:23;5.27;;;1.80;;
4533;SDS011;2279;51.448;7.306;2022-07-10T01:10:49;2.70;;;1.90;;
4533;SDS011;2279;51.448;7.306;2022-07-10T01:13:15;2.37;;;1.40;;
4533;SDS011;2279;51.448;7.306;2022-07-10T01:15:41;3.10;;;1.50;;
4533;SDS011;2279;51.448;7.306;2022-07-10T01:18:08;4.10;;;1.70;;
4533;SDS011;2279;51.448;7.306;2022-07-10T01:20:34;3.57;;;1.50;;
4533;SDS011;2279;51.448;7.306;2022-07-10T01:23:00;5.93;;;1.60;;
4533;SDS011;2279;51.448;7.306;2022-07-10T01:25:27;4.70;;;1.80;;
4533;SDS011;2279;51.448;7.306;2022-07-10T01:27:53;4.13;;;1.27;;
4533;SDS011;2279;51.448;7.306;2022-07-10T01:30:19;2.20;;;1.63;;
4533;SDS011;2279;51.448;7.306;2022-07-10T01:32:46;5.60;;;1.80;;
4533;SDS011;2279;51.448;7.306;2022-07-10T01:35:12;3.73;;;1.40;;
4533;SDS011;2279;51.448;7.306;2022-07-10T01:37:39;7.30;;;1.70;;
4533;SDS011;2279;51.448;7.306;2022-07-10T01:40:05;7.27;;;1.83;;
4533;SDS011;2279;51.448;7.306;2022-07-10T01:42:31;4.20;;;1.47;;
4533;SDS011;2279;51.448;7.306;2022-07-10T01:44:57;6.47;;;1.50;;
4533;SDS011;2279;51.448;7.306;2022-07-10T01:47:23;3.67;;;1.43;;
4533;SDS011;2279;51.448;7.306;2022-07-10T01:49:51;2.20;;;2.07;;
4533;SDS011;2279;51.448;7.306;2022-07-10T01:52:17;2.13;;;1.60;;
4533;SDS011;2279;51.448;7.306;2022-07-10T01:54:43;1.73;;;1.63;;
4533;SDS011;2279;51.448;7.306;2022-07-10T01:57:09;3.90;;;1.50;;
4533;SDS011;2279;51.448;7.306;2022-07-10T01:59:36;5.33;;;1.60;;
4533;SDS011;2279;51.448;7.306;2022-07-10T02:02:02;1.50;;;1.20;;
4533;SDS011;2279;51.448;7.306;2022-07-10T02:04:28;3.40;;;1.60;;
4533;SDS011;2279;51.448;7.306;2022-07-10T02:07:09;4.57;;;1.50;;
4533;SDS011;2279;51.448;7.306;2022-07-10T02:09:36;4.20;;;1.60;;
4533;SDS011;2279;51.448;7.306;2022-07-10T02:12:02;6.70;;;1.80;;
4533;SDS011;2279;51.448;7.306;2022-07-10T02:14:28;2.43;;;1.63;;
4533;SDS011;2279;51.448;7.306;2022-07-10T02:16:54;3.00;;;1.50;;
4533;SDS011;2279;51.448;7.306;2022-07-10T02:19:20;5.03;;;1.60;;
4533;SDS011;2279;51.448;7.306;2022-07-10T02:21:46;6.60;;;1.97;;
4533;SDS011;2279;51.448;7.306;2022-07-10T02:24:12;3.20;;;1.40;;
4533;SDS011;2279;51.448;7.306;2022-07-10T02:26:38;2.03;;;1.60;;
4533;SDS011;2279;51.448;7.306;2022-07-10T02:29:04;4.50;;;1.90;;
4533;SDS011;2279;51.448;7.306;2022-07-10T02:31:30;2.30;;;1.20;;
4533;SDS011;2279;51.448;7.306;2022-07-10T02:33:59;6.27;;;1.57;;
4533;SDS011;2279;51.448;7.306;2022-07-10T02:36:25;2.10;;;1.50;;
4533;SDS011;2279;51.448;7.306;2022-07-10T02:38:51;10.60;;;2.30;;
4533;SDS011;2279;51.448;7.306;2022-07-10T02:41:17;4.10;;;1.80;;
4533;SDS011;2279;51.448;7.306;2022-07-10T02:43:43;1.47;;;1.37;;
4533;SDS011;2279;51.448;7.306;2022-07-10T02:46:09;3.00;;;1.90;;
4533;SDS011;2279;51.448;7.306;2022-07-10T02:48:35;3.07;;;1.70;;
4533;SDS011;2279;51.448;7.306;2022-07-10T02:51:01;2.70;;;1.90;;
4533;SDS011;2279;51.448;7.306;2022-07-10T02:53:27;3.47;;;1.67;;
4533;SDS011;2279;51.448;7.306;2022-07-10T02:55:53;2.50;;;1.50;;
4533;SDS011;2279;51.448;7.306;2022-07-10T02:58:19;2.37;;;1.60;;
4533;SDS011;2279;51.448;7.306;2022-07-10T03:00:45;2.37;;;1.70;;
4533;SDS011;2279;51.448;7.306;2022-07-10T03:03:11;7.33;;;1.70;;
4533;SDS011;2279;51.448;7.306;2022-07-10T03:05:37;3.90;;;2.37;;
4533;SDS011;2279;51.448;7.306;2022-07-10T03:08:03;10.40;;;1.40;;
4533;SDS011;2279;51.448;7.306;2022-07-10T03:10:29;5.57;;;1.80;;
4533;SDS011;2279;51.448;7.306;2022-07-10T03:12:55;4.17;;;2.03;;
4533;SDS011;2279;51.448;7.306;2022-07-10T03:15:21;3.87;;;1.60;;
4533;SDS011;2279;51.448;7.306;2022-07-10T03:17:47;5.63;;;1.90;;
4533;SDS011;2279;51.448;7.306;2022-07-10T03:20:13;2.10;;;1.47;;
4533;SDS011;2279;51.448;7.306;2022-07-10T03:22:39;4.33;;;1.73;;
4533;SDS011;2279;51.448;7.306;2022-07-10T03:25:05;3.00;;;1.50;;
4533;SDS011;2279;51.448;7.306;2022-07-10T03:27:31;4.87;;;1.80;;
4533;SDS011;2279;51.448;7.306;2022-07-10T03:29:57;3.40;;;1.53;;
4533;SDS011;2279;51.448;7.306;2022-07-10T03:32:23;3.87;;;1.53;;
4533;SDS011;2279;51.448;7.306;2022-07-10T03:34:49;5.50;;;1.57;;
4533;SDS011;2279;51.448;7.306;2022-07-10T03:37:15;2.67;;;1.80;;
4533;SDS011;2279;51.448;7.306;2022-07-10T03:39:41;2.20;;;1.50;;
4533;SDS011;2279;51.448;7.306;2022-07-10T03:42:07;5.23;;;1.50;;
4533;SDS011;2279;51.448;7.306;2022-07-10T03:44:33;3.70;;;1.80;;
4533;SDS011;2279;51.448;7.306;2022-07-10T03:46:59;2.70;;;1.60;;
4533;SDS011;2279;51.448;7.306;2022-07-10T03:49:25;4.17;;;1.67;;
4533;SDS011;2279;51.448;7.306;2022-07-10T03:51:51;4.67;;;1.60;;
4533;SDS011;2279;51.448;7.306;2022-07-10T03:54:17;6.10;;;1.97;;
4533;SDS011;2279;51.448;7.306;2022-07-10T03:56:43;3.40;;;1.60;;
4533;SDS011;2279;51.448;7.306;2022-07-10T03:59:27;4.40;;;1.60;;
4533;SDS011;2279;51.448;7.306;2022-07-10T04:01:53;4.60;;;1.70;;
4533;SDS011;2279;51.448;7.306;2022-07-10T04:04:19;5.53;;;1.60;;
4533;SDS011;2279;51.448;7.306;2022-07-10T04:06:45;5.23;;;1.90;;
4533;SDS011;2279;51.448;7.306;2022-07-10T04:09:11;5.27;;;3.73;;
4533;SDS011;2279;51.448;7.306;2022-07-10T04:11:37;5.00;;;1.93;;
4533;SDS011;2279;51.448;7.306;2022-07-10T04:14:03;4.57;;;1.90;;
4533;SDS011;2279;51.448;7.306;2022-07-10T04:16:29;1.40;;;1.20;;
4533;SDS011;2279;51.448;7.306;2022-07-10T04:18:55;3.53;;;1.70;;
4533;SDS011;2279;51.448;7.306;2022-07-10T04:21:21;5.30;;;1.70;;
4533;SDS011;2279;51.448;7.306;2022-07-10T04:23:47;3.53;;;1.83;;
4533;SDS011;2279;51.448;7.306;2022-07-10T04:26:13;2.77;;;1.83;;
4533;SDS011;2279;51.448;7.306;2022-07-10T04:28:39;1.70;;;1.40;;
4533;SDS011;2279;51.448;7.306;2022-07-10T04:31:05;3.97;;;1.47;;
4533;SDS011;2279;51.448;7.306;2022-07-10T04:33:31;2.17;;;1.70;;
4533;SDS011;2279;51.448;7.306;2022-07-10T04:35:57;2.27;;;1.57;;
4533;SDS011;2279;51.448;7.306;2022-07-10T04:38:23;4.30;;;1.90;;
4533;SDS011;2279;51.448;7.306;2022-07-10T04:40:49;2.63;;;1.53;;
4533;SDS011;2279;51.448;7.306;2022-07-10T04:43:15;6.80;;;1.80;;
4533;SDS011;2279;51.448;7.306;2022-07-10T04:45:41;4.40;;;1.80;;
4533;SDS011;2279;51.448;7.306;2022-07-10T04:48:06;2.57;;;1.40;;
4533;SDS011;2279;51.448;7.306;2022-07-10T04:50:33;4.07;;;1.70;;
4533;SDS011;2279;51.448;7.306;2022-07-10T04:52:59;3.33;;;1.50;;
4533;SDS011;2279;51.448;7.306;2022-07-10T04:55:25;2.93;;;1.80;;
4533;SDS011;2279;51.448;7.306;2022-07-10T04:57:52;8.47;;;2.10;;
4533;SDS011;2279;51.448;7.306;2022-07-10T05:00:18;3.77;;;1.47;;
4533;SDS011;2279;51.448;7.306;2022-07-10T05:02:44;10.80;;;2.07;;
4533;SDS011;2279;51.448;7.306;2022-07-10T05:05:09;4.30;;;1.77;;
4533;SDS011;2279;51.448;7.306;2022-07-10T05:07:35;2.80;;;1.40;;
4533;SDS011;2279;51.448;7.306;2022-07-10T05:10:02;5.07;;;1.60;;
4533;SDS011;2279;51.448;7.306;2022-07-10T05:12:28;3.87;;;1.67;;
4533;SDS011;2279;51.448;7.306;2022-07-10T05:14:54;4.13;;;1.80;;
4533;SDS011;2279;51.448;7.306;2022-07-10T05:17:21;3.43;;;1.97;;
4533;SDS011;2279;51.448;7.306;2022-07-10T05:19:46;8.00;;;1.97;;
4533;SDS011;2279;51.448;7.306;2022-07-10T05:22:12;6.00;;;1.47;;
4533;SDS011;2279;51.448;7.306;2022-07-10T05:24:38;5.33;;;1.57;;
4533;SDS011;2279;51.448;7.306;2022-07-10T05:27:05;2.10;;;1.90;;
4533;SDS011;2279;51.448;7.306;2022-07-10T05:29:31;8.97;;;1.70;;
4533;SDS011;2279;51.448;7.306;2022-07-10T05:31:57;3.50;;;1.50;;
4533;SDS011;2279;51.448;7.306;2022-07-10T05:34:23;6.40;;;1.87;;
4533;SDS011;2279;51.448;7.306;2022-07-10T05:36:49;6.50;;;1.90;;
4533;SDS011;2279;51.448;7.306;2022-07-10T05:39:15;7.10;;;1.90;;
4533;SDS011;2279;51.448;7.306;2022-07-10T05:41:40;3.67;;;1.97;;
4533;SDS011;2279;51.448;7.306;2022-07-10T05:44:06;3.83;;;2.33;;
4533;SDS011;2279;51.448;7.306;2022-07-10T05:46:32;3.00;;;1.53;;
4533;SDS011;2279;51.448;7.306;2022-07-10T05:48:58;2.83;;;2.40;;
4533;SDS011;2279;51.448;7.306;2022-07-10T05:51:24;2.57;;;1.70;;
4533;SDS011;2279;51.448;7.306;2022-07-10T05:53:50;7.47;;;2.17;;
4533;SDS011;2279;51.448;7.306;2022-07-10T05:56:16;5.07;;;1.87;;
4533;SDS011;2279;51.448;7.306;2022-07-10T05:58:42;10.63;;;1.90;;
4533;SDS011;2279;51.448;7.306;2022-07-10T06:01:08;4.47;;;2.30;;
4533;SDS011;2279;51.448;7.306;2022-07-10T06:03:34;5.20;;;2.20;;
4533;SDS011;2279;51.448;7.306;2022-07-10T06:06:00;3.67;;;1.90;;
4533;SDS011;2279;51.448;7.306;2022-07-10T06:08:26;6.87;;;1.70;;
4533;SDS011;2279;51.448;7.306;2022-07-10T06:10:52;6.93;;;1.90;;
4533;SDS011;2279;51.448;7.306;2022-07-10T06:13:18;4.63;;;1.73;;
4533;SDS011;2279;51.448;7.306;2022-07-10T06:15:44;3.07;;;1.60;;
4533;SDS011;2279;51.448;7.306;2022-07-10T06:18:11;4.00;;;2.00;;
4533;SDS011;2279;51.448;7.306;2022-07-10T06:20:37;3.00;;;1.40;;
4533;SDS011;2279;51.448;7.306;2022-07-10T06:23:03;4.63;;;1.50;;
4533;SDS011;2279;51.448;7.306;2022-07-10T06:25:28;7.17;;;2.07;;
4533;SDS011;2279;51.448;7.306;2022-07-10T06:27:54;3.07;;;1.37;;
4533;SDS011;2279;51.448;7.306;2022-07-10T06:30:20;3.10;;;1.70;;
4533;SDS011;2279;51.448;7.306;2022-07-10T06:32:46;8.27;;;2.07;;
4533;SDS011;2279;51.448;7.306;2022-07-10T06:35:14;5.00;;;2.10;;
4533;SDS011;2279;51.448;7.306;2022-07-10T06:37:40;7.07;;;1.30;;
4533;SDS011;2279;51.448;7.306;2022-07-10T06:40:06;5.63;;;2.00;;
4533;SDS011;2279;51.448;7.306;2022-07-10T06:42:32;3.43;;;1.13;;
4533;SDS011;2279;51.448;7.306;2022-07-10T06:44:58;5.57;;;1.90;;
4533;SDS011;2279;51.448;7.306;2022-07-10T06:47:24;7.80;;;2.47;;
4533;SDS011;2279;51.448;7.306;2022-07-10T06:50:08;7.13;;;1.70;;
4533;SDS011;2279;51.448;7.306;2022-07-10T06:52:35;2.50;;;1.10;;
4533;SDS011;2279;51.448;7.306;2022-07-10T06:55:02;2.80;;;1.73;;
4533;SDS011;2279;51.448;7.306;2022-07-10T06:57:28;2.30;;;1.40;;
4533;SDS011;2279;51.448;7.306;2022-07-10T06:59:54;4.10;;;1.43;;
4533;SDS011;2279;51.448;7.306;2022-07-10T07:02:20;4.03;;;2.40;;
4533;SDS011;2279;51.448;7.306;2022-07-10T07:04:46;3.43;;;1.60;;
4533;SDS011;2279;51.448;7.306;2022-07-10T07:07:13;4.60;;;2.60;;
4533;SDS011;2279;51.448;7.306;2022-07-10T07:09:39;2.07;;;1.40;;
4533;SDS011;2279;51.448;7.306;2022-07-10T07:12:05;5.43;;;1.60;;
4533;SDS011;2279;51.448;7.306;2022-07-10T07:14:32;2.13;;;1.47;;
4533;SDS011;2279;51.448;7.306;2022-07-10T07:16:58;9.30;;;1.77;;
4533;SDS011;2279;51.448;7.306;2022-07-10T07:19:35;3.90;;;1.67;;
4533;SDS011;2279;51.448;7.306;2022-07-10T07:22:20;4.93;;;1.73;;
4533;SDS011;2279;51.448;7.306;2022-07-10T07:25:05;2.90;;;1.70;;
4533;SDS011;2279;51.448;7.306;2022-07-10T07:27:32;2.17;;;1.50;;
4533;SDS011;2279;51.448;7.306;2022-07-10T07:30:01;8.83;;;1.63;;
4533;SDS011;2279;51.448;7.306;2022-07-10T07:32:27;3.73;;;1.73;;
4533;SDS011;2279;51.448;7.306;2022-07-10T07:34:54;8.53;;;1.90;;
4533;SDS011;2279;51.448;7.306;2022-07-10T07:37:19;8.70;;;2.20;;
4533;SDS011;2279;51.448;7.306;2022-07-10T07:39:45;3.30;;;1.80;;
4533;SDS011;2279;51.448;7.306;2022-07-10T07:42:11;3.53;;;1.80;;
4533;SDS011;2279;51.448;7.306;2022-07-10T07:44:37;4.10;;;1.93;;
4533;SDS011;2279;51.448;7.306;2022-07-10T07:47:03;4.00;;;1.70;;
4533;SDS011;2279;51.448;7.306;2022-07-10T07:49:29;3.27;;;1.50;;
4533;SDS011;2279;51.448;7.306;2022-07-10T07:51:55;5.03;;;1.43;;
4533;SDS011;2279;51.448;7.306;2022-07-10T07:54:21;6.87;;;1.60;;
4533;SDS011;2279;51.448;7.306;2022-07-10T07:56:47;3.50;;;1.70;;
4533;SDS011;2279;51.448;7.306;2022-07-10T07:59:13;3.73;;;1.53;;
4533;SDS011;2279;51.448;7.306;2022-07-10T08:01:39;7.03;;;1.50;;
4533;SDS011;2279;51.448;7.306;2022-07-10T08:04:05;5.17;;;2.13;;
4533;SDS011;2279;51.448;7.306;2022-07-10T08:06:31;8.30;;;2.53;;
4533;SDS011;2279;51.448;7.306;2022-07-10T08:08:57;3.00;;;1.77;;
4533;SDS011;2279;51.448;7.306;2022-07-10T08:11:23;4.17;;;1.83;;
4533;SDS011;2279;51.448;7.306;2022-07-10T08:13:49;8.23;;;1.67;;
4533;SDS011;2279;51.448;7.306;2022-07-10T08:16:15;4.97;;;1.83;;
4533;SDS011;2279;51.448;7.306;2022-07-10T08:18:41;3.53;;;2.00;;
4533;SDS011;2279;51.448;7.306;2022-07-10T08:21:07;7.03;;;1.87;;
4533;SDS011;2279;51.448;7.306;2022-07-10T08:23:33;10.73;;;1.80;;
4533;SDS011;2279;51.448;7.306;2022-07-10T08:25:59;2.57;;;1.20;;
4533;SDS011;2279;51.448;7.306;2022-07-10T08:28:25;2.80;;;2.00;;
4533;SDS011;2279;51.448;7.306;2022-07-10T08:30:50;3.20;;;1.53;;
4533;SDS011;2279;51.448;7.306;2022-07-10T08:33:16;4.03;;;1.93;;
4533;SDS011;2279;51.448;7.306;2022-07-10T08:35:42;4.30;;;1.90;;
4533;SDS011;2279;51.448;7.306;2022-07-10T08:38:09;4.07;;;2.37;;
4533;SDS011;2279;51.448;7.306;2022-07-10T08:40:35;5.00;;;1.73;;
4533;SDS011;2279;51.448;7.306;2022-07-10T08:43:01;2.07;;;1.30;;
4533;SDS011;2279;51.448;7.306;2022-07-10T08:45:29;2.83;;;2.07;;
4533;SDS011;2279;51.448;7.306;2022-07-10T08:47:56;2.47;;;1.70;;
4533;SDS011;2279;51.448;7.306;2022-07-10T08:50:24;4.97;;;1.67;;
4533;SDS011;2279;51.448;7.306;2022-07-10T08:55:20;5.13;;;2.10;;
4533;SDS011;2279;51.448;7.306;2022-07-10T08:57:47;2.53;;;2.23;;
4533;SDS011;2279;51.448;7.306;2022-07-10T09:00:14;2.40;;;1.90;;
4533;SDS011;2279;51.448;7.306;2022-07-10T09:02:41;1.80;;;1.57;;
4533;SDS011;2279;51.448;7.306;2022-07-10T09:05:07;5.70;;;1.77;;
4533;SDS011;2279;51.448;7.306;2022-07-10T09:07:34;5.00;;;2.23;;
4533;SDS011;2279;51.448;7.306;2022-07-10T09:10:04;22.70;;;5.03;;
4533;SDS011;2279;51.448;7.306;2022-07-10T09:12:30;8.00;;;3.03;;
4533;SDS011;2279;51.448;7.306;2022-07-10T09:15:18;7.83;;;4.50;;
4533;SDS011;2279;51.448;7.306;2022-07-10T09:22:58;5.00;;;4.13;;
4533;SDS011;2279;51.448;7.306;2022-07-10T09:25:29;6.70;;;4.73;;
4533;SDS011;2279;51.448;7.306;2022-07-10T09:27:56;7.13;;;4.63;;
4533;SDS011;2279;51.448;7.306;2022-07-10T09:30:31;5.40;;;4.90;;
4533;SDS011;2279;51.448;7.306;2022-07-10T09:33:31;9.30;;;5.10;;
4533;SDS011;2279;51.448;7.306;2022-07-10T09:36:09;6.60;;;4.07;;
4533;SDS011;2279;51.448;7.306;2022-07-10T09:41:15;4.17;;;3.80;;
4533;SDS011;2279;51.448;7.306;2022-07-10T09:46:13;5.23;;;4.10;;
4533;SDS011;2279;51.448;7.306;2022-07-10T09:48:39;3.73;;;3.43;;
4533;SDS011;2279;51.448;7.306;2022-07-10T09:51:07;7.33;;;3.90;;
4533;SDS011;2279;51.448;7.306;2022-07-10T09:53:44;5.20;;;3.90;;
4533;SDS011;2279;51.448;7.306;2022-07-10T09:56:11;4.10;;;3.37;;
4533;SDS011;2279;51.448;7.306;2022-07-10T09:58:38;5.07;;;3.60;;
4533;SDS011;2279;51.448;7.306;2022-07-10T10:01:04;3.40;;;3.10;;
4533;SDS011;2279;51.448;7.306;2022-07-10T10:03:34;3.70;;;3.40;;
4533;SDS011;2279;51.448;7.306;2022-07-10T10:06:01;8.80;;;3.90;;
4533;SDS011;2279;51.448;7.306;2022-07-10T10:08:33;4.10;;;3.30;;
4533;SDS011;2279;51.448;7.306;2022-07-10T10:11:03;3.10;;;2.90;;
4533;SDS011;2279;51.448;7.306;2022-07-10T10:13:30;4.53;;;2.43;;
4533;SDS011;2279;51.448;7.306;2022-07-10T10:15:56;2.60;;;2.40;;
4533;SDS011;2279;51.448;7.306;2022-07-10T10:18:23;3.33;;;3.00;;
4533;SDS011;2279;51.448;7.306;2022-07-10T10:20:50;9.10;;;3.30;;
4533;SDS011;2279;51.448;7.306;2022-07-10T10:23:16;3.57;;;3.03;;
4533;SDS011;2279;51.448;7.306;2022-07-10T10:25:43;3.03;;;2.73;;
4533;SDS011;2279;51.448;7.306;2022-07-10T10:28:10;3.00;;;2.40;;
4533;SDS011;2279;51.448;7.306;2022-07-10T10:30:37;5.50;;;3.57;;
4533;SDS011;2279;51.448;7.306;2022-07-10T10:33:38;4.37;;;2.87;;
4533;SDS011;2279;51.448;7.306;2022-07-10T10:35:50;5.90;;;3.40;;
4533;SDS011;2279;51.448;7.306;2022-07-10T10:38:16;2.57;;;2.40;;
4533;SDS011;2279;51.448;7.306;2022-07-10T10:40:42;3.47;;;3.10;;
4533;SDS011;2279;51.448;7.306;2022-07-10T10:43:21;3.10;;;2.77;;
4533;SDS011;2279;51.448;7.306;2022-07-10T10:45:48;6.57;;;2.80;;
4533;SDS011;2279;51.448;7.306;2022-07-10T10:48:15;3.17;;;2.90;;
4533;SDS011;2279;51.448;7.306;2022-07-10T10:55:41;5.77;;;4.50;;
4533;SDS011;2279;51.448;7.306;2022-07-10T10:58:14;6.30;;;5.23;;
4533;SDS011;2279;51.448;7.306;2022-07-10T11:00:41;10.83;;;6.50;;
4533;SDS011;2279;51.448;7.306;2022-07-10T11:03:17;6.17;;;5.67;;
4533;SDS011;2279;51.448;7.306;2022-07-10T11:05:44;7.87;;;5.60;;
4533;SDS011;2279;51.448;7.306;2022-07-10T11:08:11;8.37;;;6.30;;
4533;SDS011;2279;51.448;7.306;2022-07-10T11:10:41;7.03;;;6.40;;
4533;SDS011;2279;51.448;7.306;2022-07-10T11:13:11;11.63;;;7.00;;
4533;SDS011;2279;51.448;7.306;2022-07-10T11:15:40;7.97;;;7.00;;
4533;SDS011;2279;51.448;7.306;2022-07-10T11:18:14;8.40;;;7.70;;
4533;SDS011;2279;51.448;7.306;2022-07-10T11:20:41;7.23;;;6.50;;
4533;SDS011;2279;51.448;7.306;2022-07-10T11:25:48;8.20;;;7.40;;
4533;SDS011;2279;51.448;7.306;2022-07-10T11:31:17;7.50;;;6.77;;
4533;SDS011;2279;51.448;7.306;2022-07-10T11:33:44;8.40;;;7.30;;
4533;SDS011;2279;51.448;7.306;2022-07-10T11:36:12;7.83;;;6.33;;
4533;SDS011;2279;51.448;7.306;2022-07-10T11:38:38;6.37;;;5.80;;
4533;SDS011;2279;51.448;7.306;2022-07-10T11:41:11;8.60;;;6.77;;
4533;SDS011;2279;51.448;7.306;2022-07-10T11:43:45;8.40;;;7.70;;
4533;SDS011;2279;51.448;7.306;2022-07-10T11:46:10;8.80;;;7.90;;
4533;SDS011;2279;51.448;7.306;2022-07-10T11:48:39;10.63;;;7.80;;
4533;SDS011;2279;51.448;7.306;2022-07-10T11:51:15;12.03;;;8.00;;
4533;SDS011;2279;51.448;7.306;2022-07-10T11:53:41;9.97;;;8.90;;
4533;SDS011;2279;51.448;7.306;2022-07-10T11:56:18;10.27;;;7.90;;
4533;SDS011;2279;51.448;7.306;2022-07-10T11:58:52;12.17;;;9.90;;
4533;SDS011;2279;51.448;7.306;2022-07-10T12:01:18;13.50;;;10.47;;
4533;SDS011;2279;51.448;7.306;2022-07-10T12:03:44;14.47;;;9.37;;
4533;SDS011;2279;51.448;7.306;2022-07-10T12:06:10;12.40;;;9.80;;
4533;SDS011;2279;51.448;7.306;2022-07-10T12:08:43;12.67;;;10.77;;
4533;SDS011;2279;51.448;7.306;2022-07-10T12:11:15;14.60;;;11.73;;
4533;SDS011;2279;51.448;7.306;2022-07-10T12:13:43;14.67;;;11.43;;
4533;SDS011;2279;51.448;7.306;2022-07-10T12:16:09;14.53;;;11.03;;
4533;SDS011;2279;51.448;7.306;2022-07-10T12:18:36;16.60;;;11.20;;
4533;SDS011;2279;51.448;7.306;2022-07-10T12:21:02;18.70;;;11.93;;
4533;SDS011;2279;51.448;7.306;2022-07-10T12:23:29;14.80;;;10.87;;
4533;SDS011;2279;51.448;7.306;2022-07-10T12:25:55;13.57;;;11.80;;
4533;SDS011;2279;51.448;7.306;2022-07-10T12:28:21;17.60;;;11.50;;
4533;SDS011;2279;51.448;7.306;2022-07-10T12:30:48;15.00;;;11.00;;
4533;SDS011;2279;51.448;7.306;2022-07-10T12:38:19;10.53;;;9.43;;
4533;SDS011;2279;51.448;7.306;2022-07-10T12:40:45;5.43;;;4.60;;
4533;SDS011;2279;51.448;7.306;2022-07-10T12:43:11;5.23;;;4.80;;
4533;SDS011;2279;51.448;7.306;2022-07-10T12:45:37;3.80;;;3.50;;
4533;SDS011;2279;51.448;7.306;2022-07-10T12:48:04;4.13;;;3.83;;
4533;SDS011;2279;51.448;7.306;2022-07-10T12:50:33;3.90;;;3.60;;
4533;SDS011;2279;51.448;7.306;2022-07-10T12:53:11;4.30;;;3.87;;
4533;SDS011;2279;51.448;7.306;2022-07-10T12:55:38;4.73;;;4.47;;
4533;SDS011;2279;51.448;7.306;2022-07-10T12:58:09;4.20;;;3.80;;
4533;SDS011;2279;51.448;7.306;2022-07-10T13:00:42;3.90;;;3.60;;
4533;SDS011;2279;51.448;7.306;2022-07-10T13:03:09;6.13;;;3.83;;
4533;SDS011;2279;51.448;7.306;2022-07-10T13:05:37;3.10;;;2.90;;
4533;SDS011;2279;51.448;7.306;2022-07-10T13:08:10;5.80;;;2.60;;
4533;SDS011;2279;51.448;7.306;2022-07-10T13:10:50;2.57;;;2.37;;
4533;SDS011;2279;51.448;7.306;2022-07-10T13:13:16;2.40;;;2.20;;
4533;SDS011;2279;51.448;7.306;2022-07-10T13:15:43;2.17;;;2.07;;
4533;SDS011;2279;51.448;7.306;2022-07-10T13:18:19;5.63;;;2.70;;
4533;SDS011;2279;51.448;7.306;2022-07-10T13:20:46;2.80;;;2.20;;
4533;SDS011;2279;51.448;7.306;2022-07-10T13:23:12;3.73;;;3.33;;
4533;SDS011;2279;51.448;7.306;2022-07-10T13:25:39;4.73;;;4.33;;
4533;SDS011;2279;51.448;7.306;2022-07-10T13:28:05;3.33;;;3.13;;
4533;SDS011;2279;51.448;7.306;2022-07-10T13:30:32;2.30;;;2.20;;
4533;SDS011;2279;51.448;7.306;2022-07-10T13:32:58;2.60;;;2.50;;
4533;SDS011;2279;51.448;7.306;2022-07-10T13:35:24;2.67;;;2.27;;
4533;SDS011;2279;51.448;7.306;2022-07-10T13:37:52;2.50;;;2.30;;
4533;SDS011;2279;51.448;7.306;2022-07-10T13:40:18;1.80;;;1.70;;
4533;SDS011;2279;51.448;7.306;2022-07-10T13:42:44;1.90;;;1.80;;
4533;SDS011;2279;51.448;7.306;2022-07-10T13:45:10;2.43;;;2.23;;
4533;SDS011;2279;51.448;7.306;2022-07-10T13:47:36;3.07;;;2.77;;
4533;SDS011;2279;51.448;7.306;2022-07-10T13:50:02;2.10;;;2.00;;
4533;SDS011;2279;51.448;7.306;2022-07-10T13:52:28;2.10;;;2.00;;
4533;SDS011;2279;51.448;7.306;2022-07-10T13:54:54;2.03;;;1.93;;
4533;SDS011;2279;51.448;7.306;2022-07-10T13:57:20;3.03;;;2.17;;
4533;SDS011;2279;51.448;7.306;2022-07-10T13:59:46;2.10;;;1.90;;
4533;SDS011;2279;51.448;7.306;2022-07-10T14:02:12;2.43;;;2.23;;
4533;SDS011;2279;51.448;7.306;2022-07-10T14:04:38;2.37;;;2.13;;
4533;SDS011;2279;51.448;7.306;2022-07-10T14:07:04;2.90;;;2.70;;
4533;SDS011;2279;51.448;7.306;2022-07-10T14:09:30;2.50;;;2.30;;
4533;SDS011;2279;51.448;7.306;2022-07-10T14:11:56;2.20;;;2.10;;
4533;SDS011;2279;51.448;7.306;2022-07-10T14:14:22;2.27;;;2.13;;
4533;SDS011;2279;51.448;7.306;2022-07-10T14:16:48;2.60;;;2.17;;
4533;SDS011;2279;51.448;7.306;2022-07-10T14:19:16;2.90;;;2.10;;
4533;SDS011;2279;51.448;7.306;2022-07-10T14:21:42;2.40;;;2.20;;
4533;SDS011;2279;51.448;7.306;2022-07-10T14:24:08;1.70;;;1.60;;
4533;SDS011;2279;51.448;7.306;2022-07-10T14:26:34;2.33;;;2.03;;
4533;SDS011;2279;51.448;7.306;2022-07-10T14:29:02;1.70;;;1.60;;
4533;SDS011;2279;51.448;7.306;2022-07-10T14:31:28;1.87;;;1.67;;
4533;SDS011;2279;51.448;7.306;2022-07-10T14:33:54;1.90;;;1.80;;
4533;SDS011;2279;51.448;7.306;2022-07-10T14:36:20;2.00;;;1.87;;
4533;SDS011;2279;51.448;7.306;2022-07-10T14:38:55;1.73;;;1.63;;
4533;SDS011;2279;51.448;7.306;2022-07-10T14:41:22;2.30;;;1.93;;
4533;SDS011;2279;51.448;7.306;2022-07-10T14:43:49;2.23;;;1.97;;
4533;SDS011;2279;51.448;7.306;2022-07-10T14:46:15;3.20;;;2.10;;
4533;SDS011;2279;51.448;7.306;2022-07-10T14:48:41;1.90;;;1.80;;
4533;SDS011;2279;51.448;7.306;2022-07-10T14:51:07;2.50;;;1.87;;
4533;SDS011;2279;51.448;7.306;2022-07-10T14:53:33;2.70;;;2.10;;
4533;SDS011;2279;51.448;7.306;2022-07-10T14:56:03;2.37;;;2.17;;
4533;SDS011;2279;51.448;7.306;2022-07-10T14:58:29;3.10;;;2.80;;
4533;SDS011;2279;51.448;7.306;2022-07-10T15:00:55;2.37;;;2.17;;
4533;SDS011;2279;51.448;7.306;2022-07-10T15:03:21;2.63;;;2.43;;
4533;SDS011;2279;51.448;7.306;2022-07-10T15:05:47;2.23;;;2.10;;
4533;SDS011;2279;51.448;7.306;2022-07-10T15:08:18;2.83;;;2.07;;
4533;SDS011;2279;51.448;7.306;2022-07-10T15:10:44;2.70;;;2.60;;
4533;SDS011;2279;51.448;7.306;2022-07-10T15:13:11;2.40;;;2.30;;
4533;SDS011;2279;51.448;7.306;2022-07-10T15:15:37;4.03;;;2.60;;
4533;SDS011;2279;51.448;7.306;2022-07-10T15:18:02;2.97;;;2.77;;
4533;SDS011;2279;51.448;7.306;2022-07-10T15:20:28;3.80;;;2.60;;
4533;SDS011;2279;51.448;7.306;2022-07-10T15:22:55;3.13;;;2.83;;
4533;SDS011;2279;51.448;7.306;2022-07-10T15:25:21;3.63;;;2.87;;
4533;SDS011;2279;51.448;7.306;2022-07-10T15:27:47;3.00;;;2.63;;
4533;SDS011;2279;51.448;7.306;2022-07-10T15:30:13;2.90;;;2.70;;
4533;SDS011;2279;51.448;7.306;2022-07-10T15:32:39;2.73;;;2.43;;
4533;SDS011;2279;51.448;7.306;2022-07-10T15:35:06;2.63;;;2.43;;
4533;SDS011;2279;51.448;7.306;2022-07-10T15:37:32;4.30;;;2.53;;
4533;SDS011;2279;51.448;7.306;2022-07-10T15:39:58;2.63;;;2.43;;
4533;SDS011;2279;51.448;7.306;2022-07-10T15:42:24;4.53;;;2.10;;
4533;SDS011;2279;51.448;7.306;2022-07-10T15:44:50;2.63;;;2.27;;
4533;SDS011;2279;51.448;7.306;2022-07-10T15:47:16;2.70;;;2.50;;